Muckle Holm, United Kingdom
Current Conditions -  °F | °C
As of 7:20 AM on Thursday 18 Dec 2014 (Local Time) from EGPM Reporting Station
Rain Showers Rain Showers  
Wind Chill:   Ceiling: Unl
Heat Index:   Visibility: 6mi
Dew Point:   Wind: 18mph
Humidity: 87%   Direction: 260°W
Pressure: 29.06"   Gusts: NA
Location:  60.58°N, 1.27°W
Report Text: EGPM 180720Z 26016KT 9999 -SHRA FEW020 SCT028 05/03 Q0984 NOSIG
Loading
Personal Weather Stations






























Interactive Weather Map New forecast layout! Learn more

10-Day Weather Forecast

Advertisements
Track Severe Weather on mobile